Time;durP1;ratioP1;P1;durP2;ratioP2;P2;SDS_P1;SDS_P2;PMS_P1;PMS_P2;Temp;Humidity;BMP_temperature;BMP_pressure;BME280_temperature;BME280_humidity;BME280_pressure;Samples;Min_cycle;Max_cycle;Signal;HPM_P1;HPM_P2
2022/07/26 00:02:14;;;;;;;14.52;7.18;;;;;;;-144.47;64.13;53126.22;5004904;28;20488;-89
2022/07/26 00:04:46;;;;;;;14.77;7.43;;;;;;;-144.47;64.22;53163.97;5019884;28;20265;-89
2022/07/26 00:07:13;;;;;;;18.58;6.60;;;;;;;-144.47;63.97;53169.91;5020254;28;20482;-89
2022/07/26 00:09:42;;;;;;;18.55;7.32;;;;;;;-144.47;63.83;53128.22;5019739;28;20044;-88
2022/07/26 00:12:14;;;;;;;21.52;7.65;;;;;;;-144.47;63.76;53146.09;5034655;28;20087;-88
2022/07/26 00:14:40;;;;;;;17.33;7.75;;;;;;;-144.47;63.83;53138.13;5018180;28;20040;-88
2022/07/26 00:17:08;;;;;;;18.90;8.18;;;;;;;-144.47;64.20;53110.31;5003458;28;20101;-88
2022/07/26 00:19:37;;;;;;;18.38;9.07;;;;;;;-144.47;63.93;53104.38;5019094;28;20072;-88
2022/07/26 00:24:53;;;;;;;14.88;7.53;;;;;;;-144.47;63.67;53140.13;5051547;28;20063;-89
2022/07/26 00:27:21;;;;;;;17.70;8.55;;;;;;;-144.47;63.65;53169.91;5038570;28;20041;-89
2022/07/26 00:29:47;;;;;;;;;;;;;;;-144.47;63.67;53136.16;5043616;28;20037;-89
2022/07/26 00:32:15;;;;;;;14.93;7.38;;;;;;;-144.47;63.36;53130.19;5048591;28;19921;-89
2022/07/26 00:34:58;;;;;;;;;;;;;;;;;;;;;
2022/07/26 00:37:31;;;;;;;19.58;8.10;;;;;;;-144.47;62.84;53124.22;5036396;28;20097;-88
2022/07/26 00:40:01;;;;;;;16.00;7.53;;;;;;;-144.47;62.61;53181.84;5019474;28;20032;-89
2022/07/26 00:42:30;;;;;;;15.52;8.52;;;;;;;-144.47;62.58;53120.25;5002336;28;20110;-89
2022/07/26 00:45:00;;;;;;;15.05;7.90;;;;;;;-144.47;62.26;53156.00;5042647;28;20443;-89
2022/07/26 00:47:29;;;;;;;16.23;7.82;;;;;;;-144.47;62.16;53122.25;5056578;28;20480;-89
2022/07/26 00:49:57;;;;;;;17.15;7.65;;;;;;;-144.47;62.18;53116.28;5056769;28;20338;-89
2022/07/26 00:52:26;;;;;;;;;;;;;;;-144.47;61.87;53116.28;5045069;28;20037;-89
2022/07/26 00:54:55;;;;;;;14.75;7.72;;;;;;;-144.47;62.02;53169.91;5035770;28;19912;-89
2022/07/26 00:57:32;;;;;;;;;;;;;;;;;;;;;
2022/07/26 01:00:07;;;;;;;10.20;6.45;;;;;;;-144.47;61.70;53148.06;5038198;28;20081;-88
2022/07/26 01:02:47;;;;;;;14.27;8.43;;;;;;;-144.47;62.02;53148.06;5019605;28;20110;-89
2022/07/26 01:05:16;;;;;;;16.40;8.13;;;;;;;-144.47;61.86;53118.28;5021002;28;20061;-89
2022/07/26 01:07:55;;;;;;;12.95;7.72;;;;;;;-144.47;61.69;53163.97;5015307;28;20100;-89
2022/07/26 01:10:25;;;;;;;15.95;8.15;;;;;;;-144.47;62.00;53154.03;5002798;28;20056;-89
2022/07/26 01:12:56;;;;;;;17.50;8.48;;;;;;;-144.47;61.80;53161.97;5004109;28;20093;-89
2022/07/26 01:15:22;;;;;;;15.77;8.18;;;;;;;-144.47;61.79;53167.94;5026414;28;20185;-89
2022/07/26 01:17:54;;;;;;;11.00;7.35;;;;;;;-144.47;61.72;53165.94;5014489;28;20117;-89
2022/07/26 01:20:20;;;;;;;15.40;6.88;;;;;;;-144.47;61.60;53146.09;5027021;28;20026;-88
2022/07/26 01:22:47;;;;;;;12.18;6.72;;;;;;;-144.47;61.39;53146.09;5034699;28;20048;-88
2022/07/26 01:25:38;;;;;;;14.43;6.93;;;;;;;-144.47;60.79;53171.91;5033977;28;20033;-89
2022/07/26 01:28:09;;;;;;;18.02;7.97;;;;;;;-144.47;61.22;53138.13;5034079;28;20030;-88
2022/07/26 01:30:36;;;;;;;15.68;7.65;;;;;;;-144.47;61.89;53148.06;5017747;28;20089;-87
2022/07/26 01:33:07;;;;;;;18.00;7.93;;;;;;;-144.47;61.81;53160.00;5027530;28;20029;-88
2022/07/26 01:35:35;;;;;;;17.63;8.45;;;;;;;-144.47;61.81;53132.19;5057647;28;20025;-88
2022/07/26 01:38:00;;;;;;;19.55;7.90;;;;;;;-144.47;62.21;53150.06;5031480;28;20365;-88
2022/07/26 01:40:29;;;;;;;14.68;7.93;;;;;;;-144.47;62.34;53134.16;5027871;28;20125;-87
2022/07/26 01:43:02;;;;;;;16.35;8.02;;;;;;;-144.47;62.48;53142.09;5024553;28;20018;-87
2022/07/26 01:45:35;;;;;;;21.60;7.85;;;;;;;-144.47;62.61;53144.09;5010912;28;20072;-87
2022/07/26 01:48:07;;;;;;;16.77;8.15;;;;;;;-144.47;62.83;53136.16;4998928;28;20068;-88
2022/07/26 01:50:38;;;;;;;13.38;7.88;;;;;;;-144.47;62.83;53142.09;5030661;28;20029;-87
2022/07/26 01:53:16;;;;;;;21.35;9.45;;;;;;;-144.47;63.12;53183.81;5019010;28;20540;-88
2022/07/26 01:55:42;;;;;;;16.85;9.07;;;;;;;-144.47;63.50;53146.09;5031337;28;20029;-88
2022/07/26 01:58:10;;;;;;;16.52;8.88;;;;;;;-144.47;63.57;53142.09;5021424;28;20033;-87
2022/07/26 02:00:39;;;;;;;17.27;9.20;;;;;;;-144.47;63.88;53158.00;5033482;28;20479;-88
2022/07/26 02:03:10;;;;;;;;;;;;;;;-144.47;64.10;53160.00;5021591;28;20038;-88
2022/07/26 02:05:41;;;;;;;21.88;9.98;;;;;;;-144.47;64.31;53177.88;5031846;28;19981;-89
2022/07/26 02:08:13;;;;;;;16.45;9.20;;;;;;;-144.47;64.49;53191.78;5025884;28;20116;-88
2022/07/26 02:13:30;;;;;;;19.98;10.77;;;;;;;-144.47;64.99;53138.13;5016141;28;20053;-88
2022/07/26 02:16:01;;;;;;;20.25;12.55;;;;;;;-144.47;65.20;53130.19;4998895;28;20022;-88
2022/07/26 02:18:31;;;;;;;20.60;10.70;;;;;;;-144.47;65.49;53163.97;4998663;28;20021;-88
2022/07/26 02:21:06;;;;;;;18.77;10.10;;;;;;;-144.47;65.88;53132.19;5015901;28;20022;-88
2022/07/26 02:23:43;;;;;;;20.35;10.35;;;;;;;-144.47;66.03;53181.84;5050953;28;20028;-88
2022/07/26 02:26:12;;;;;;;17.55;11.18;;;;;;;-144.47;65.96;53169.91;5055823;28;20017;-89
2022/07/26 02:28:41;;;;;;;20.20;10.85;;;;;;;-144.47;66.12;53154.03;5019252;28;20025;-88
2022/07/26 02:31:31;;;;;;;19.13;10.10;;;;;;;-144.47;65.46;53181.84;5019908;28;20034;-88
2022/07/26 02:33:59;;;;;;;18.27;9.70;;;;;;;-144.47;65.40;53167.94;5020971;28;20026;-88
2022/07/26 02:36:38;;;;;;;18.45;8.90;;;;;;;-144.47;63.61;53160.00;5037184;28;20043;-87
2022/07/26 02:39:11;;;;;;;20.70;8.35;;;;;;;-144.47;62.48;53165.94;5032407;28;20075;-88
2022/07/26 02:41:41;;;;;;;15.90;7.10;;;;;;;-144.47;61.07;53150.06;5061964;28;20062;-88
2022/07/26 02:44:13;;;;;;;17.40;7.38;;;;;;;-144.47;60.52;53144.09;5042740;28;20543;-88
2022/07/26 02:46:49;;;;;;;19.83;7.18;;;;;;;-144.47;59.90;53167.94;5064389;28;20017;-87
2022/07/26 02:49:32;;;;;;;19.45;7.07;;;;;;;-144.47;59.32;53138.13;5006045;28;20052;-88
2022/07/26 02:52:05;;;;;;;25.05;6.63;;;;;;;-144.47;59.00;53165.94;5012016;28;20051;-88
2022/07/26 02:54:38;;;;;;;13.40;5.95;;;;;;;-144.47;58.75;53160.00;5002928;28;20036;-88
2022/07/26 02:57:18;;;;;;;21.17;6.03;;;;;;;-144.47;58.60;53189.78;5002310;28;20393;-88
2022/07/26 03:00:16;;;;;;;10.93;5.40;;;;;;;-144.47;58.88;53183.81;5031863;28;20101;-88
2022/07/26 03:02:48;;;;;;;14.23;5.50;;;;;;;-144.47;58.65;53154.03;5002435;28;20065;-87
2022/07/26 03:05:28;;;;;;;24.73;5.38;;;;;;;-144.47;58.38;53158.00;5000936;28;20033;-88
2022/07/26 03:07:57;;;;;;;16.23;5.20;;;;;;;-144.47;58.46;53150.06;5039509;28;20163;-88
2022/07/26 03:10:34;;;;;;;18.52;4.50;;;;;;;-144.47;58.05;53183.81;5056580;28;20361;-88
2022/07/26 03:13:00;;;;;;;26.20;7.18;;;;;;;-144.47;58.02;53150.06;5041862;28;20072;-87
2022/07/26 03:15:25;;;;;;;20.52;4.25;;;;;;;-144.47;57.65;53163.97;5035986;28;20029;-87
2022/07/26 03:17:58;;;;;;;21.70;4.68;;;;;;;-144.47;57.44;53114.31;5049975;28;20424;-88
2022/07/26 03:20:36;;;;;;;16.63;4.53;;;;;;;-144.47;57.68;53152.03;5035316;28;20033;-88
2022/07/26 03:23:04;;;;;;;16.40;4.70;;;;;;;-144.47;57.61;53140.13;5025359;28;20485;-87
2022/07/26 03:25:32;;;;;;;12.80;4.43;;;;;;;-144.47;57.35;53185.81;5001325;28;20412;-88
2022/07/26 03:28:00;;;;;;;13.98;4.35;;;;;;;-144.47;57.34;53177.88;5019310;28;20026;-88
2022/07/26 03:30:42;;;;;;;17.20;4.43;;;;;;;-144.47;57.30;53161.97;4999938;28;20429;-88
2022/07/26 03:33:32;;;;;;;13.65;4.05;;;;;;;-144.47;57.34;53161.97;5014530;28;20121;-88
2022/07/26 03:36:03;;;;;;;12.13;4.22;;;;;;;-144.47;57.41;53148.06;5029330;28;20045;-88
2022/07/26 03:38:28;;;;;;;13.43;4.45;;;;;;;-144.47;57.67;53163.97;5020907;28;20032;-87
2022/07/26 03:41:00;;;;;;;14.93;4.07;;;;;;;-144.47;57.73;53165.94;5020860;28;20033;-89
2022/07/26 03:43:26;;;;;;;12.32;4.45;;;;;;;-144.47;58.02;53165.94;5021392;28;20333;-88
2022/07/26 03:45:57;;;;;;;18.15;5.35;;;;;;;-144.47;58.00;53177.88;5039208;28;20028;-88
2022/07/26 03:48:29;;;;;;;11.52;4.03;;;;;;;-144.47;58.09;53189.78;5038433;28;20080;-89
2022/07/26 03:50:55;;;;;;;14.18;4.97;;;;;;;-144.47;57.83;53146.09;5053244;28;20043;-88
2022/07/26 03:53:26;;;;;;;14.98;4.45;;;;;;;-144.47;57.64;53158.00;5042754;28;20029;-89
2022/07/26 03:58:44;;;;;;;14.70;4.68;;;;;;;-144.47;57.36;53177.88;5059194;28;20436;-89
2022/07/26 04:01:12;;;;;;;17.73;4.63;;;;;;;-144.47;57.46;53156.00;5040684;28;20025;-88
2022/07/26 04:03:48;;;;;;;14.03;4.80;;;;;;;-144.47;57.18;53179.84;5058208;28;20025;-89
2022/07/26 04:06:17;;;;;;;21.17;4.63;;;;;;;-144.47;56.98;53150.06;5041924;28;20474;-88
2022/07/26 04:08:50;;;;;;;;;;;;;;;-144.47;57.11;53163.97;5039544;28;20128;-88
2022/07/26 04:11:16;;;;;;;18.92;5.55;;;;;;;-144.47;56.92;53193.75;5041998;28;20051;-89
2022/07/26 04:14:06;;;;;;;14.80;4.53;;;;;;;-144.47;57.01;53163.97;5039181;28;20049;-88
2022/07/26 04:16:50;;;;;;;16.05;4.38;;;;;;;-144.47;56.74;53154.03;5044597;28;20112;-88
2022/07/26 04:19:29;;;;;;;20.25;4.40;;;;;;;-144.47;56.47;53167.94;4999506;28;20393;-88
2022/07/26 04:22:18;;;;;;;15.70;4.47;;;;;;;-144.47;56.47;53144.09;5032019;28;20159;-89
2022/07/26 04:24:50;;;;;;;17.90;3.88;;;;;;;-144.47;56.32;53171.91;5037184;28;20044;-89
2022/07/26 04:27:16;;;;;;;14.32;4.65;;;;;;;-144.47;56.43;53195.75;5032308;28;20018;-87
2022/07/26 04:29:55;;;;;;;9.27;3.90;;;;;;;-144.47;56.23;53193.75;5021179;28;20036;-88
2022/07/26 04:32:31;;;;;;;22.70;4.68;;;;;;;-144.47;56.12;53173.88;5019993;28;20026;-88
2022/07/26 04:35:09;;;;;;;19.73;4.78;;;;;;;-144.47;55.60;53173.88;5012108;28;20029;-88
2022/07/26 04:37:47;;;;;;;13.87;4.63;;;;;;;-144.47;55.77;53148.06;5048865;28;20048;-87
2022/07/26 04:40:37;;;;;;;;;;;;;;;;;;;;;
2022/07/26 04:43:09;;;;;;;14.65;5.65;;;;;;;-144.47;55.07;53167.94;5017529;28;20525;-87
2022/07/26 04:45:42;;;;;;;17.13;3.97;;;;;;;-144.47;54.89;53158.00;5003749;28;20037;-88
2022/07/26 04:48:19;;;;;;;21.40;4.97;;;;;;;-144.47;54.48;53150.06;5008916;28;20025;-88
2022/07/26 04:50:49;;;;;;;15.50;4.65;;;;;;;-144.47;54.50;53175.88;5013313;28;20037;-89
2022/07/26 04:53:20;;;;;;;12.13;4.35;;;;;;;-144.47;54.55;53136.16;5048989;28;20029;-89
2022/07/26 04:56:09;;;;;;;18.83;3.65;;;;;;;-144.47;54.18;53165.94;5051606;28;20030;-88
2022/07/26 04:58:39;;;;;;;20.98;5.30;;;;;;;-144.47;54.27;53161.97;5055177;28;20029;-89
2022/07/26 05:01:30;;;;;;;17.90;4.22;;;;;;;-144.47;54.18;53183.81;5055688;28;20212;-89
2022/07/26 05:04:19;;;;;;;14.60;3.95;;;;;;;-144.47;54.16;53197.72;5037750;28;20037;-88
2022/07/26 05:06:45;;;;;;;13.70;4.13;;;;;;;-144.47;53.93;53163.97;5045801;28;20029;-89
2022/07/26 05:09:10;;;;;;;14.13;4.70;;;;;;;-144.47;54.13;53177.88;5045854;28;20072;-89
2022/07/26 05:11:45;;;;;;;20.15;3.75;;;;;;;-144.47;54.38;53169.91;5064028;28;20052;-88
2022/07/26 05:14:19;;;;;;;16.83;4.20;;;;;;;-144.47;54.42;53140.13;5026492;28;20025;-89
2022/07/26 05:16:44;;;;;;;12.45;3.42;;;;;;;-144.47;54.26;53163.97;5045142;28;20030;-84
2022/07/26 05:19:15;;;;;;;21.38;4.15;;;;;;;-144.47;53.72;53150.06;5027309;28;20119;-89
2022/07/26 05:21:58;;;;;;;17.23;3.75;;;;;;;-144.47;53.49;53193.75;5028774;28;20043;-89
2022/07/26 05:24:41;;;;;;;11.45;3.50;;;;;;;-144.47;52.61;53171.91;5031446;28;20029;-88
2022/07/26 05:27:14;;;;;;;15.00;3.00;;;;;;;-144.47;52.20;53183.81;5049901;28;20021;-88
2022/07/26 05:29:48;;;;;;;17.40;2.95;;;;;;;-144.47;51.97;53189.78;5013932;28;20077;-89
2022/07/26 05:32:22;;;;;;;11.10;3.17;;;;;;;-144.47;51.37;53171.91;5029466;28;20033;-86
2022/07/26 05:34:55;;;;;;;21.20;4.03;;;;;;;-144.47;51.50;53142.09;5028916;28;20373;-90
2022/07/26 05:37:37;;;;;;;14.70;3.65;;;;;;;-144.47;51.29;53169.91;5045971;28;20022;-87
2022/07/26 05:40:08;;;;;;;7.22;3.17;;;;;;;-144.47;50.54;53146.09;5048016;28;20147;-89
2022/07/26 05:42:36;;;;;;;6.85;2.42;;;;;;;-144.47;50.37;53140.13;5045930;28;20036;-87
2022/07/26 05:45:08;;;;;;;12.95;2.88;;;;;;;-144.47;49.79;53132.19;5043263;28;20035;-87
2022/07/26 05:47:36;;;;;;;14.52;3.55;;;;;;;-144.47;49.93;53199.72;5025154;28;20029;-88
2022/07/26 05:50:09;;;;;;;11.95;2.83;;;;;;;-144.47;49.36;53136.16;5054165;28;20028;-87
2022/07/26 05:52:42;;;;;;;13.65;2.60;;;;;;;-144.47;49.21;53128.22;5031753;28;20025;-88
2022/07/26 05:55:11;;;;;;;10.27;2.08;;;;;;;-144.47;48.63;53146.09;5006069;28;20044;-88
2022/07/26 05:57:50;;;;;;;10.50;2.97;;;;;;;-144.47;48.89;53130.19;5024897;28;20025;-89
2022/07/26 06:00:36;;;;;;;;;;;;;;;;;;;;;
2022/07/26 06:03:34;;;;;;;;;;;;;;;;;;;;;
2022/07/26 06:06:30;;;;;;;9.57;2.20;;;;;;;-144.47;48.65;53169.91;5059030;28;20085;-88
2022/07/26 06:09:01;;;;;;;10.35;2.08;;;;;;;-144.47;48.41;53148.06;5030111;28;20029;-89
2022/07/26 06:11:58;;;;;;;9.25;2.00;;;;;;;-144.47;48.44;53142.09;5036767;28;20105;-89
2022/07/26 06:14:30;;;;;;;10.77;2.38;;;;;;;-144.47;48.72;53165.94;5020061;28;20025;-88
2022/07/26 06:17:06;;;;;;;13.25;2.33;;;;;;;-144.47;48.70;53181.84;5021521;28;20176;-88
2022/07/26 06:20:31;;;;;;;18.33;2.22;;;;;;;-144.47;48.67;53169.91;5020001;28;20036;-89
2022/07/26 06:23:05;;;;;;;9.45;1.95;;;;;;;-144.47;48.63;53142.09;5022432;28;20052;-88
2022/07/26 06:26:14;;;;;;;;;;;;;;;;;;;;;
2022/07/26 06:28:53;;;;;;;;;;;;;;;;;;;;;
2022/07/26 06:32:02;;;;;;;9.98;2.10;;;;;;;-144.47;48.56;53150.06;4946277;28;20429;-89
2022/07/26 06:34:34;;;;;;;8.43;1.90;;;;;;;-144.47;48.66;53154.03;4976211;28;20038;-89
2022/07/26 06:37:09;;;;;;;8.38;2.70;;;;;;;-144.47;48.74;53160.00;4976877;28;20060;-89
2022/07/26 06:39:48;;;;;;;10.70;2.15;;;;;;;-144.47;48.58;53136.16;4976810;28;20081;-88
2022/07/26 06:42:25;;;;;;;9.75;2.10;;;;;;;-144.47;48.46;53140.13;4960862;28;20038;-88
2022/07/26 06:45:00;;;;;;;7.68;2.15;;;;;;;-144.47;48.15;53154.03;4978781;28;20038;-89
2022/07/26 06:48:17;;;;;;;;;;;;;;;;;;;;;
2022/07/26 06:51:15;;;;;;;;;;;;;;;;;;;;;
2022/07/26 06:53:48;;;;;;;9.48;2.50;;;;;;;-144.47;48.93;53156.00;4960004;29;20062;-89
2022/07/26 06:56:36;;;;;;;;;;;;;;;;;;;;;
2022/07/26 06:59:27;;;;;;;11.88;2.53;;;;;;;-144.47;48.86;53165.94;4951601;29;20035;-87
2022/07/26 07:05:23;;;;;;;10.27;2.67;;;;;;;-144.47;48.54;53181.84;4964069;29;20055;-88
2022/07/26 07:08:11;;;;;;;;;;;;;;;;;;;;;
2022/07/26 07:10:54;;;;;;;13.37;2.20;;;;;;;-144.47;48.86;53134.16;4958694;29;20181;-87
2022/07/26 07:13:52;;;;;;;8.73;2.35;;;;;;;-144.47;48.48;53169.91;4912728;29;20035;-87
2022/07/26 07:19:33;;;;;;;9.95;2.60;;;;;;;-144.47;48.45;53152.03;4936456;29;20035;-88
2022/07/26 07:22:13;;;;;;;11.50;2.40;;;;;;;-144.47;47.76;53130.19;4924079;29;20040;-89
2022/07/26 07:24:59;;;;;;;;;;;;;;;;;;;;;
2022/07/26 07:27:44;;;;;;;10.40;1.70;;;;;;;-144.47;46.56;53144.09;4923569;29;20020;-87
2022/07/26 07:30:15;;;;;;;6.15;1.67;;;;;;;-144.47;45.50;53136.16;4931790;29;20054;-88
2022/07/26 07:32:55;;;;;;;;;;;;;;;;;;;;;
2022/07/26 07:35:30;;;;;;;8.40;1.70;;;;;;;-144.47;46.05;53177.88;4988157;28;20058;-87
2022/07/26 07:38:02;;;;;;;19.70;2.20;;;;;;;-144.47;45.43;53094.44;4977208;28;20077;-87
2022/07/26 07:40:41;;;;;;;;;;;;;;;;;;;;;
2022/07/26 07:43:33;;;;;;;10.02;2.00;;;;;;;-144.47;45.86;53120.25;4995820;28;20050;-87
2022/07/26 07:46:01;;;;;;;12.23;1.83;;;;;;;-144.47;45.43;53144.09;4954014;28;20054;-88
2022/07/26 07:49:04;;;;;;;;;;;;;;;;;;;;;
2022/07/26 07:51:58;;;;;;;9.00;1.70;;;;;;;-144.47;45.39;53142.09;4988010;28;20396;-88
2022/07/26 07:54:56;;;;;;;10.23;1.92;;;;;;;-144.47;45.08;53146.09;4984561;28;20073;-89
2022/07/26 07:57:54;;;;;;;13.32;2.00;;;;;;;-144.47;45.34;53154.03;5033348;28;20136;-87
2022/07/26 08:00:25;;;;;;;6.70;1.88;;;;;;;-144.47;45.21;53122.25;5065227;28;20104;-89
2022/07/26 08:02:59;;;;;;;5.03;1.48;;;;;;;-144.47;44.88;53140.13;5047572;28;20028;-89
2022/07/26 08:05:39;;;;;;;5.88;1.80;;;;;;;-144.47;44.21;53156.00;5067915;28;20036;-88
2022/07/26 08:08:05;;;;;;;8.30;1.92;;;;;;;-144.47;43.80;53154.03;5065780;28;20005;-88
2022/07/26 08:11:15;;;;;;;10.15;1.70;;;;;;;-144.47;43.82;53110.31;5047664;28;20396;-88
2022/07/26 08:14:01;;;;;;;6.97;2.55;;;;;;;-144.47;43.99;53160.00;5038499;28;20041;-86
2022/07/26 08:16:37;;;;;;;10.00;1.77;;;;;;;-144.47;44.25;53130.19;5038342;28;20036;-88
2022/07/26 08:19:36;;;;;;;4.18;1.70;;;;;;;-144.47;44.62;53142.09;5069039;28;20024;-88
2022/07/26 08:22:08;;;;;;;14.75;1.48;;;;;;;-144.47;44.56;53150.06;5035755;28;20049;-89
2022/07/26 08:25:03;;;;;;;5.00;1.80;;;;;;;-144.47;44.50;53126.22;5017925;28;20026;-87
2022/07/26 08:27:59;;;;;;;8.05;2.13;;;;;;;-144.47;44.36;53116.28;5016821;28;20037;-88
2022/07/26 08:30:44;;;;;;;;;;;;;;;;;;;;;
2022/07/26 08:33:29;;;;;;;;;;;;;;;;;;;;;
2022/07/26 08:36:04;;;;;;;7.13;1.33;;;;;;;-144.47;43.68;53130.19;5029049;28;20085;-87
2022/07/26 08:38:48;;;;;;;11.98;1.77;;;;;;;-144.47;43.32;53122.25;5029704;28;20274;-88
2022/07/26 08:41:48;;;;;;;9.30;1.73;;;;;;;-144.47;42.93;53112.31;5014269;28;20095;-88
2022/07/26 08:44:35;;;;;;;;;;;;;;;;;;;;;
2022/07/26 08:47:11;;;;;;;6.28;1.50;;;;;;;-144.47;44.32;53126.22;5044547;28;20141;-87
2022/07/26 08:50:14;;;;;;;;;;;;;;;;;;;;;
2022/07/26 08:52:45;;;;;;;9.15;1.92;;;;;;;-144.47;44.41;53134.16;5055770;28;20076;-88
2022/07/26 08:55:25;;;;;;;7.15;1.63;;;;;;;-144.47;43.88;53152.03;5044891;28;20052;-87
2022/07/26 08:57:53;;;;;;;11.07;1.63;;;;;;;-144.47;43.62;53122.25;5031921;28;20025;-87
2022/07/26 09:00:54;;;;;;;;;;;;;;;;;;;;;
2022/07/26 09:03:36;;;;;;;10.10;1.70;;;;;;;-144.47;43.11;53122.25;5043755;28;20137;-87
2022/07/26 09:06:31;;;;;;;8.32;2.00;;;;;;;-144.47;43.09;53158.00;5024488;28;20061;-87
2022/07/26 09:09:18;;;;;;;19.25;1.85;;;;;;;-144.47;42.10;53148.06;5004094;28;20438;-87
2022/07/26 09:11:59;;;;;;;11.98;1.90;;;;;;;-144.47;42.50;53122.25;5046952;28;20037;-89
2022/07/26 09:14:52;;;;;;;8.25;1.70;;;;;;;-144.47;42.30;53140.13;5048454;28;20108;-87
2022/07/26 09:17:24;;;;;;;7.38;1.60;;;;;;;-144.47;41.95;53086.50;5031747;28;20037;-87
2022/07/26 09:20:32;;;;;;;12.52;2.10;;;;;;;-144.47;42.56;53122.25;5011494;28;20034;-89
2022/07/26 09:23:45;;;;;;;9.10;1.85;;;;;;;-144.47;41.90;53136.16;5033310;28;20039;-87
2022/07/26 09:26:24;;;;;;;5.78;1.60;;;;;;;-144.47;41.50;53165.94;5029625;28;20033;-88
2022/07/26 09:29:29;;;;;;;;;;;;;;;;;;;;;
2022/07/26 09:32:22;;;;;;;11.52;2.20;;;;;;;-144.47;41.50;53082.53;5047914;28;20048;-88
2022/07/26 09:35:22;;;;;;;;;;;;;;;;;;;;;
2022/07/26 09:37:51;;;;;;;8.23;1.80;;;;;;;-144.47;41.26;53108.34;5051364;28;20048;-88
2022/07/26 09:40:20;;;;;;;7.00;1.40;;;;;;;-144.47;40.58;53132.19;5057878;28;20087;-88
2022/07/26 09:43:00;;;;;;;11.70;1.83;;;;;;;-144.47;40.14;53102.38;5029462;28;20120;-87
2022/07/26 09:45:30;;;;;;;11.35;1.48;;;;;;;-144.47;39.56;53076.56;5025671;28;20087;-87
2022/07/26 09:48:01;;;;;;;8.57;1.85;;;;;;;-144.47;40.46;53118.28;5006945;28;20041;-87
2022/07/26 09:50:35;;;;;;;10.57;2.13;;;;;;;-144.47;40.79;53114.31;5004176;28;20061;-89
2022/07/26 09:53:23;;;;;;;4.70;1.50;;;;;;;-144.47;40.01;53088.47;5007581;28;20094;-90
2022/07/26 09:56:08;;;;;;;12.10;1.88;;;;;;;-144.47;39.98;53128.22;5051411;28;20054;-89
2022/07/26 09:58:49;;;;;;;7.72;2.03;;;;;;;-144.47;39.54;53088.47;5041409;28;20086;-88
2022/07/26 10:01:24;;;;;;;7.95;1.75;;;;;;;-144.47;39.29;53118.28;5039613;28;20033;-87
2022/07/26 10:03:54;;;;;;;13.63;1.90;;;;;;;-144.47;38.93;53114.31;5040681;28;20052;-86
2022/07/26 10:06:25;;;;;;;4.90;1.70;;;;;;;-144.47;38.90;53138.13;5023679;28;20021;-88
2022/07/26 10:09:02;;;;;;;6.35;1.70;;;;;;;-144.47;39.01;53082.53;5057606;28;20028;-88
2022/07/26 10:11:37;;;;;;;11.90;1.77;;;;;;;-144.47;38.93;53068.63;5059430;28;20017;-88
2022/07/26 10:17:54;;;;;;;7.65;1.83;;;;;;;-144.47;38.43;53130.19;4951360;29;20118;-88
2022/07/26 10:20:47;;;;;;;4.90;1.60;;;;;;;-144.47;38.66;53118.28;4926000;29;20027;-88
2022/07/26 10:23:42;;;;;;;3.05;1.23;;;;;;;-144.47;38.21;53100.41;4943605;29;20487;-85
2022/07/26 10:26:46;;;;;;;5.90;1.52;;;;;;;-144.47;37.38;53124.22;4929230;29;20047;-88
2022/07/26 10:32:34;;;;;;;6.50;1.30;;;;;;;-144.47;37.58;53114.31;4886348;29;20040;-87
2022/07/26 10:38:56;;;;;;;9.75;1.55;;;;;;;-144.47;37.54;53102.38;4837844;29;20064;-88
2022/07/26 10:42:33;;;;;;;5.00;1.65;;;;;;;-144.47;37.52;53116.28;4842095;29;20102;-85
2022/07/26 10:45:28;;;;;;;8.60;1.67;;;;;;;-144.47;36.85;53096.41;4784819;29;20035;-88
2022/07/26 10:49:05;;;;;;;9.65;2.17;;;;;;;-144.47;36.12;53072.59;4807802;29;20144;-89
2022/07/26 10:51:58;;;;;;;3.00;1.47;;;;;;;-144.47;36.71;53078.53;4883639;29;20121;-87
2022/07/26 10:57:53;;;;;;;4.35;1.50;;;;;;;-144.47;37.09;53110.31;4922935;28;20099;-89
2022/07/26 11:01:18;;;;;;;9.70;1.85;;;;;;;-144.47;37.50;53078.53;4934097;28;20034;-87
2022/07/26 11:03:55;;;;;;;9.27;3.60;;;;;;;-144.47;37.35;53066.63;4865732;29;20106;-87
2022/07/26 11:06:44;;;;;;;3.78;1.63;;;;;;;-144.47;37.52;53068.63;4941983;28;20023;-87
2022/07/26 11:09:11;;;;;;;6.65;2.00;;;;;;;-144.47;37.67;53134.16;4962989;28;20123;-87
2022/07/26 11:11:45;;;;;;;4.35;1.63;;;;;;;-144.47;37.60;53100.41;4976438;28;20034;-87
2022/07/26 11:14:32;;;;;;;7.55;1.88;;;;;;;-144.47;37.44;53098.41;4962564;28;20067;-88
2022/07/26 11:17:15;;;;;;;;;;;;;;;;;;;;;
2022/07/26 11:20:01;;;;;;;6.97;1.60;;;;;;;-144.47;37.77;53108.34;4996886;28;20043;-88
2022/07/26 11:22:46;;;;;;;4.20;1.58;;;;;;;-144.47;37.72;53112.31;4944964;29;20043;-88
2022/07/26 11:25:36;;;;;;;;;;;;;;;;;;;;;
2022/07/26 11:28:34;;;;;;;5.45;1.77;;;;;;;-144.47;38.12;53100.41;4954049;29;20043;-88
2022/07/26 11:31:00;;;;;;;14.00;1.98;;;;;;;-144.47;37.60;53102.38;4956642;29;20027;-87
2022/07/26 11:33:51;;;;;;;3.65;1.70;;;;;;;-144.47;37.38;53080.53;4942916;29;20473;-86
2022/07/26 11:36:30;;;;;;;5.38;2.08;;;;;;;-144.47;36.76;53074.56;4956286;29;20023;-85
2022/07/26 11:39:08;;;;;;;6.55;1.35;;;;;;;-144.47;35.73;53056.69;4958530;29;20086;-87
2022/07/26 11:41:44;;;;;;;6.50;1.70;;;;;;;-144.47;34.62;53080.53;4955721;29;20051;-86
2022/07/26 11:44:26;;;;;;;6.28;1.73;;;;;;;-144.47;34.44;53068.63;4958926;28;20353;-86
2022/07/26 11:46:59;;;;;;;6.28;1.75;;;;;;;-144.47;35.20;53066.63;4939229;29;20043;-88
2022/07/26 11:49:38;;;;;;;7.13;1.77;;;;;;;-144.47;35.68;53094.44;4943168;29;20187;-85
2022/07/26 11:52:10;;;;;;;3.38;1.77;;;;;;;-144.47;36.03;53088.47;4975649;28;20043;-86
2022/07/26 11:54:50;;;;;;;7.05;2.08;;;;;;;-144.47;36.43;53054.72;4976565;28;20039;-86
2022/07/26 11:57:51;;;;;;;8.57;1.80;;;;;;;-144.47;36.18;53108.34;4944830;29;20106;-87
2022/07/26 12:00:23;;;;;;;10.68;2.22;;;;;;;-144.47;36.77;53104.38;5023847;28;20029;-88
2022/07/26 12:03:05;;;;;;;10.48;2.20;;;;;;;-144.47;36.65;53086.50;5037768;28;20044;-88
2022/07/26 12:05:40;;;;;;;7.97;1.85;;;;;;;-144.47;36.77;53104.38;5036011;28;20025;-87
2022/07/26 12:08:19;;;;;;;7.97;3.22;;;;;;;-144.47;36.88;53084.50;5047331;28;20093;-87
2022/07/26 12:10:55;;;;;;;6.90;2.20;;;;;;;-144.47;37.04;53098.41;5039535;28;20092;-88
2022/07/26 12:14:51;;;;;;;6.60;2.45;;;;;;;-144.47;36.68;53128.22;5056260;28;20044;-87
2022/07/26 12:17:34;;;;;;;;;;;;;;;;;;;;;
2022/07/26 12:20:32;;;;;;;9.13;2.22;;;;;;;-144.47;36.34;53126.22;4954098;28;20046;-87
2022/07/26 12:23:18;;;;;;;7.63;2.40;;;;;;;-144.47;36.57;53066.63;4996322;28;20087;-89
2022/07/26 12:25:51;;;;;;;6.60;2.20;;;;;;;-144.47;37.08;53104.38;4996584;28;20138;-87
2022/07/26 12:28:51;;;;;;;8.77;2.42;;;;;;;-144.47;37.04;53114.31;4962739;28;20089;-87
2022/07/26 12:32:17;;;;;;;10.73;2.90;;;;;;;-144.47;37.13;53122.25;4979074;28;20054;-86
2022/07/26 12:35:07;;;;;;;5.07;2.28;;;;;;;-144.47;36.92;53122.25;4918893;29;20037;-84
2022/07/26 12:37:52;;;;;;;8.40;1.92;;;;;;;-144.47;36.80;53122.25;4918818;29;20056;-87
2022/07/26 12:40:32;;;;;;;6.03;1.77;;;;;;;-144.47;36.89;53118.28;4920192;29;20028;-89
2022/07/26 12:43:11;;;;;;;9.00;2.33;;;;;;;-144.47;37.70;53126.22;4919866;29;20020;-88
2022/07/26 12:45:39;;;;;;;;;;;;;;;-144.47;38.10;53122.25;4903961;29;20037;-88
2022/07/26 12:50:59;;;;;;;9.38;2.53;;;;;;;-144.47;38.47;53092.44;4949927;28;19934;-87
2022/07/26 12:53:32;;;;;;;7.07;2.50;;;;;;;-144.47;38.81;53106.34;4976367;28;20043;-86
2022/07/26 12:56:27;;;;;;;11.93;2.95;;;;;;;-144.47;38.67;53118.28;4958521;29;20130;-88
2022/07/26 12:59:07;;;;;;;10.38;2.30;;;;;;;-144.47;38.39;53118.28;4975024;28;20077;-89
2022/07/26 13:01:47;;;;;;;3.47;1.90;;;;;;;-144.47;37.30;53106.34;4959134;28;20047;-88
2022/07/26 13:04:28;;;;;;;10.38;2.20;;;;;;;-144.47;37.07;53122.25;5017107;28;20049;-87
2022/07/26 13:07:04;;;;;;;;;;;;;;;;;;;;;
2022/07/26 13:09:47;;;;;;;5.30;1.88;;;;;;;-144.47;37.72;53122.25;5052442;28;20060;-87
2022/07/26 13:12:30;;;;;;;6.85;2.00;;;;;;;-144.47;37.34;53132.19;5052921;28;20037;-88
2022/07/26 13:15:30;;;;;;;8.73;2.05;;;;;;;-144.47;37.44;53088.47;5041146;28;20090;-87
2022/07/26 13:18:07;;;;;;;4.32;1.80;;;;;;;-144.47;35.71;53102.38;5035984;28;20066;-86